Time;durP1;ratioP1;P1;durP2;ratioP2;P2;SDS_P1;SDS_P2;PMS_P1;PMS_P2;Temp;Humidity;BMP_temperature;BMP_pressure;BME280_temperature;BME280_humidity;BME280_pressure;Samples;Min_cycle;Max_cycle;Signal;HPM_P1;HPM_P2
2022/10/26 00:01:13;;;;;;;21.40;14.23;;;;;;;11.77;94.52;100422.11;1736677;82;25610;-68
2022/10/26 00:03:43;;;;;;;26.17;15.15;;;;;;;11.75;94.73;100421.07;1736864;82;25459;-68
2022/10/26 00:06:18;;;;;;;23.55;15.50;;;;;;;11.73;94.88;100421.13;1736724;82;27432;-68
2022/10/26 00:08:46;;;;;;;22.82;15.32;;;;;;;11.70;95.00;100426.63;1730910;82;25547;-68
2022/10/26 00:11:14;;;;;;;24.43;15.08;;;;;;;11.70;95.52;100424.48;1735585;82;25467;-68
2022/10/26 00:13:42;;;;;;;27.05;16.10;;;;;;;11.68;95.86;100426.16;1735773;82;25636;-68
2022/10/26 00:16:23;;;;;;;29.90;16.50;;;;;;;11.70;96.14;100429.34;1740156;81;25452;-68
2022/10/26 00:18:50;;;;;;;29.87;16.65;;;;;;;11.71;96.31;100436.91;1739689;81;27402;-67
2022/10/26 00:21:18;;;;;;;29.50;17.48;;;;;;;11.73;96.58;100433.32;1738325;81;25469;-67
2022/10/26 00:23:45;;;;;;;29.87;18.50;;;;;;;11.73;96.76;100431.97;1737019;82;25566;-67
2022/10/26 00:26:13;;;;;;;26.35;16.10;;;;;;;11.74;97.03;100437.64;1737037;82;25660;-67
2022/10/26 00:28:40;;;;;;;31.35;18.25;;;;;;;11.77;97.28;100439.16;1737003;82;25336;-67
2022/10/26 00:31:12;;;;;;;27.00;17.35;;;;;;;11.80;97.36;100441.82;1736924;82;28228;-69
2022/10/26 00:33:40;;;;;;;24.77;17.60;;;;;;;11.82;97.47;100443.66;1736896;82;25499;-69
2022/10/26 00:36:08;;;;;;;29.67;19.05;;;;;;;11.84;97.52;100441.98;1736886;82;25340;-69
2022/10/26 00:38:37;;;;;;;30.95;21.75;;;;;;;11.86;97.68;100439.19;1737121;82;26202;-69
2022/10/26 00:41:05;;;;;;;93.82;86.42;;;;;;;11.88;97.79;100438.88;1737032;81;25538;-69
2022/10/26 00:43:35;;;;;;;26.37;17.23;;;;;;;11.89;97.98;100439.92;1736997;82;27291;-69
2022/10/26 00:46:11;;;;;;;56.53;51.08;;;;;;;11.93;97.87;100443.63;1736914;81;25380;-69
2022/10/26 00:48:46;;;;;;;93.25;85.40;;;;;;;11.94;97.68;100435.75;1736164;82;25484;-68
2022/10/26 00:51:38;;;;;;;93.22;85.57;;;;;;;11.95;97.64;100434.64;1736865;82;25616;-68
2022/10/26 00:54:10;;;;;;;81.25;74.30;;;;;;;11.95;97.50;100436.00;1736956;82;25401;-69
2022/10/26 00:56:41;;;;;;;94.55;86.92;;;;;;;11.94;97.39;100443.87;1732161;82;27104;-69
2022/10/26 00:59:12;;;;;;;40.58;30.52;;;;;;;11.94;97.27;100441.17;1717334;82;25512;-69
2022/10/26 01:01:43;;;;;;;31.95;23.90;;;;;;;11.96;97.30;100441.65;1731697;82;25517;-69
2022/10/26 01:04:12;;;;;;;33.18;18.42;;;;;;;11.96;97.44;100447.63;1686666;83;26028;-67
2022/10/26 01:06:42;;;;;;;32.67;18.90;;;;;;;11.99;97.47;100448.37;1731646;82;25293;-67
2022/10/26 01:09:10;;;;;;;33.38;19.37;;;;;;;12.00;97.71;100445.88;1723472;82;27206;-67
2022/10/26 01:11:37;;;;;;;35.03;19.12;;;;;;;12.01;97.79;100446.13;1731603;82;25477;-68
2022/10/26 01:14:09;;;;;;;32.75;19.98;;;;;;;12.01;97.82;100439.36;1731631;82;25813;-69
2022/10/26 01:16:50;;;;;;;94.67;86.97;;;;;;;12.03;98.13;100443.11;1731595;82;26376;-68
2022/10/26 01:19:52;;;;;;;93.35;85.10;;;;;;;12.04;98.25;100446.08;1731286;82;25594;-68
2022/10/26 01:22:25;;;;;;;94.00;85.85;;;;;;;12.02;98.28;100445.56;1731623;82;27150;-69
2022/10/26 01:25:09;;;;;;;89.92;82.35;;;;;;;12.03;98.34;100444.47;1730935;82;25530;-69
2022/10/26 01:27:44;;;;;;;90.28;82.88;;;;;;;12.05;98.23;100434.89;1731411;82;25518;-70
2022/10/26 01:30:35;;;;;;;30.97;18.12;;;;;;;12.07;98.14;100442.71;1731611;82;27809;-69
2022/10/26 01:33:23;;;;;;;32.20;18.25;;;;;;;12.10;98.20;100450.22;1731207;82;25510;-69
2022/10/26 01:36:17;;;;;;;34.45;19.65;;;;;;;12.11;98.06;100454.54;1730461;82;27239;-69
2022/10/26 01:39:14;;;;;;;33.83;19.15;;;;;;;12.11;97.96;100447.77;1706018;84;25626;-69
2022/10/26 01:41:49;;;;;;;29.27;18.80;;;;;;;12.10;97.79;100451.01;1661056;85;25387;-69
2022/10/26 01:44:41;;;;;;;33.58;19.90;;;;;;;12.09;97.70;100446.72;1655446;85;25724;-70
2022/10/26 01:47:17;;;;;;;32.33;19.32;;;;;;;12.10;97.66;100451.58;1663484;85;25581;-70
2022/10/26 01:49:49;;;;;;;32.78;19.20;;;;;;;12.09;97.93;100445.36;1659882;85;27344;-70
2022/10/26 01:52:19;;;;;;;33.73;18.12;;;;;;;12.09;97.87;100453.50;1659286;86;25529;-68
2022/10/26 01:54:46;;;;;;;34.83;18.87;;;;;;;12.08;98.01;100449.17;1656249;85;25548;-68
2022/10/26 01:57:18;;;;;;;35.25;19.50;;;;;;;12.08;98.10;100448.39;1663302;86;25675;-68
2022/10/26 02:00:09;;;;;;;32.53;18.98;;;;;;;12.09;98.10;100455.42;1663349;85;25526;-68
2022/10/26 02:03:00;;;;;;;34.03;19.32;;;;;;;12.09;98.07;100450.00;1663463;86;27285;-68
2022/10/26 02:05:48;;;;;;;29.85;18.62;;;;;;;12.09;98.20;100450.78;1661014;86;25621;-68
2022/10/26 02:08:33;;;;;;;29.27;17.95;;;;;;;12.09;98.18;100452.70;1655463;85;25568;-68
2022/10/26 02:11:14;;;;;;;27.73;18.42;;;;;;;12.09;98.22;100451.35;1658464;85;25617;-69
2022/10/26 02:14:13;;;;;;;31.80;19.30;;;;;;;12.09;98.28;100450.78;1706534;82;25656;-69
2022/10/26 02:16:54;;;;;;;33.58;19.48;;;;;;;12.10;98.14;100457.00;1685785;83;27218;-69
2022/10/26 02:19:44;;;;;;;43.78;18.85;;;;;;;12.09;97.87;100460.28;1663729;84;25599;-69
2022/10/26 02:22:23;;;;;;;30.82;19.32;;;;;;;12.09;97.89;100458.13;1685803;85;25328;-69
2022/10/26 02:24:53;;;;;;;32.13;18.87;;;;;;;12.09;98.15;100462.20;1684748;84;25884;-69
2022/10/26 02:27:26;;;;;;;31.12;18.45;;;;;;;12.08;98.08;100468.72;1702378;83;25613;-69
2022/10/26 02:29:55;;;;;;;35.48;19.07;;;;;;;12.09;98.11;100473.04;1702569;83;27189;-69
2022/10/26 02:32:26;;;;;;;29.92;19.25;;;;;;;12.07;98.24;100468.47;1702438;83;25368;-68
2022/10/26 02:34:57;;;;;;;35.25;19.12;;;;;;;12.06;98.30;100469.59;1702321;83;25492;-68
2022/10/26 02:37:26;;;;;;;29.80;18.00;;;;;;;12.07;98.50;100470.64;1702821;83;25648;-68
2022/10/26 02:39:56;;;;;;;31.85;18.17;;;;;;;12.07;98.59;100467.93;1663938;84;25514;-68
2022/10/26 02:42:26;;;;;;;33.73;18.48;;;;;;;12.07;98.65;100467.93;1695159;84;27111;-68
2022/10/26 02:44:58;;;;;;;32.85;18.57;;;;;;;12.07;98.71;100473.36;1695449;84;25594;-67
2022/10/26 02:47:26;;;;;;;31.30;18.12;;;;;;;12.08;98.71;100472.78;1702506;83;25405;-67
2022/10/26 02:49:54;;;;;;;31.97;19.60;;;;;;;12.08;98.64;100471.44;1701579;83;25615;-67
2022/10/26 02:52:36;;;;;;;29.47;17.57;;;;;;;12.08;98.69;100476.29;1702879;83;25390;-67
2022/10/26 02:55:21;;;;;;;33.05;18.20;;;;;;;12.08;98.64;100468.16;1702427;83;27198;-68
2022/10/26 02:57:54;;;;;;;35.30;19.60;;;;;;;12.08;98.43;100477.64;1702113;83;25680;-68
2022/10/26 03:00:21;;;;;;;33.98;19.98;;;;;;;12.07;98.36;100473.89;1692023;83;25575;-68
2022/10/26 03:02:56;;;;;;;34.25;19.50;;;;;;;12.06;98.46;100484.52;1694803;84;26154;-68
2022/10/26 03:05:27;;;;;;;33.02;20.00;;;;;;;12.06;98.41;100487.22;1669507;84;25378;-69
2022/10/26 03:07:55;;;;;;;34.27;18.40;;;;;;;12.05;98.56;100488.32;1693890;84;27201;-69
2022/10/26 03:10:23;;;;;;;30.97;19.17;;;;;;;12.05;98.68;100486.41;1694887;83;25350;-69
2022/10/26 03:12:51;;;;;;;35.28;20.52;;;;;;;12.04;98.76;100484.82;1649332;86;25626;-69
2022/10/26 03:15:18;;;;;;;34.60;20.35;;;;;;;12.04;98.83;100488.89;1709707;82;27789;-69
2022/10/26 03:17:45;;;;;;;33.88;20.02;;;;;;;12.05;98.82;100486.97;1729269;82;25376;-69
2022/10/26 03:20:12;;;;;;;39.85;23.40;;;;;;;12.04;98.80;100491.59;1728548;82;27182;-69
2022/10/26 03:22:40;;;;;;;39.30;20.50;;;;;;;12.04;98.74;100492.16;1729298;82;27273;-69
2022/10/26 03:25:08;;;;;;;37.65;21.82;;;;;;;12.02;98.71;100492.47;1726976;82;25537;-69
2022/10/26 03:27:36;;;;;;;39.20;22.60;;;;;;;12.03;98.92;100498.69;1730355;82;25711;-69
2022/10/26 03:30:05;;;;;;;38.20;22.22;;;;;;;12.02;99.09;100502.50;1734267;82;25177;-68
2022/10/26 03:32:33;;;;;;;38.55;22.60;;;;;;;12.02;99.18;100510.09;1732539;82;27288;-68
2022/10/26 03:35:01;;;;;;;39.73;21.82;;;;;;;12.02;99.27;100509.28;1732836;82;25326;-68
2022/10/26 03:37:28;;;;;;;46.42;23.38;;;;;;;12.04;99.35;100508.43;1732904;82;25369;-68
2022/10/26 03:39:55;;;;;;;42.17;22.80;;;;;;;12.04;99.43;100503.01;1733258;82;25691;-68
2022/10/26 03:42:22;;;;;;;36.80;22.40;;;;;;;12.04;99.45;100511.94;1731117;82;25554;-68
2022/10/26 03:44:50;;;;;;;44.15;23.75;;;;;;;12.05;99.51;100514.08;1731898;82;27279;-68
2022/10/26 03:47:17;;;;;;;39.83;20.48;;;;;;;12.05;99.53;100514.87;1732012;82;25539;-68
2022/10/26 03:49:44;;;;;;;42.50;22.58;;;;;;;12.06;99.49;100511.05;1727078;82;25479;-68
2022/10/26 03:52:11;;;;;;;41.40;24.10;;;;;;;12.07;99.51;100509.14;1729732;82;27764;-68
2022/10/26 03:54:39;;;;;;;42.55;23.15;;;;;;;12.07;99.56;100513.20;1729005;82;25440;-68
2022/10/26 03:57:06;;;;;;;43.10;22.55;;;;;;;12.07;99.63;100514.02;1729290;82;29338;-68
2022/10/26 03:59:33;;;;;;;42.43;22.55;;;;;;;12.09;99.61;100521.28;1735414;82;25312;-68
2022/10/26 04:02:00;;;;;;;40.50;21.82;;;;;;;12.09;99.57;100520.48;1740051;82;25477;-68
2022/10/26 04:04:28;;;;;;;42.65;21.50;;;;;;;12.09;99.49;100521.28;1740052;82;25660;-68
2022/10/26 04:06:55;;;;;;;35.55;21.20;;;;;;;12.09;99.59;100526.70;1739760;82;25563;-68
2022/10/26 04:09:22;;;;;;;38.67;22.30;;;;;;;12.10;99.63;100525.57;1733230;81;27246;-68
2022/10/26 04:11:49;;;;;;;43.05;21.75;;;;;;;12.12;99.58;100525.27;1721218;83;25585;-68
2022/10/26 04:14:16;;;;;;;43.08;21.93;;;;;;;12.11;99.48;100524.47;1721354;83;25473;-68
2022/10/26 04:16:44;;;;;;;39.65;22.27;;;;;;;12.11;99.42;100524.47;1721319;83;26587;-68
2022/10/26 04:19:11;;;;;;;38.33;22.20;;;;;;;12.12;99.34;100530.15;1721311;83;25424;-68
2022/10/26 04:21:39;;;;;;;35.95;21.60;;;;;;;12.12;99.22;100527.97;1721294;83;27604;-68
2022/10/26 04:24:06;;;;;;;40.40;22.85;;;;;;;12.10;99.04;100530.99;1734409;82;25367;-68
2022/10/26 04:26:33;;;;;;;36.65;20.27;;;;;;;12.10;98.89;100533.70;1739824;81;25304;-68
2022/10/26 04:29:03;;;;;;;37.35;21.20;;;;;;;12.08;98.71;100535.94;1739742;82;25727;-68
2022/10/26 04:31:30;;;;;;;38.13;21.35;;;;;;;12.08;98.63;100531.08;1739869;82;32843;-68
2022/10/26 04:34:00;;;;;;;32.85;19.67;;;;;;;12.06;98.55;100536.02;1739850;81;26657;-68
2022/10/26 04:36:29;;;;;;;32.85;20.02;;;;;;;12.06;98.43;100537.38;1707837;82;26099;-68
2022/10/26 04:38:56;;;;;;;38.53;20.23;;;;;;;12.03;98.31;100533.93;1750725;81;26556;-68
2022/10/26 04:41:23;;;;;;;34.13;19.42;;;;;;;12.03;98.18;100536.64;1734135;82;25663;-68
2022/10/26 04:43:51;;;;;;;37.93;20.10;;;;;;;12.00;98.00;100534.55;1725081;81;25579;-68
2022/10/26 04:46:18;;;;;;;34.45;19.70;;;;;;;11.98;98.07;100533.50;1718833;82;27248;-68
2022/10/26 04:48:48;;;;;;;39.53;20.12;;;;;;;11.96;97.86;100541.95;1739777;82;25490;-68
2022/10/26 04:51:15;;;;;;;31.20;18.02;;;;;;;11.95;97.78;100546.31;1739881;82;25477;-68
2022/10/26 04:53:42;;;;;;;35.20;19.30;;;;;;;11.94;97.82;100546.88;1739768;81;25602;-68
2022/10/26 04:56:09;;;;;;;34.25;21.00;;;;;;;11.93;97.71;100547.19;1739765;82;25499;-68
2022/10/26 04:58:36;;;;;;;31.80;19.50;;;;;;;11.91;97.56;100551.56;1739778;81;28038;-68
2022/10/26 05:01:04;;;;;;;38.60;20.00;;;;;;;11.90;97.60;100545.89;1744905;81;25522;-68
2022/10/26 05:03:31;;;;;;;35.92;20.68;;;;;;;11.89;97.57;100544.28;1739707;81;25289;-68
2022/10/26 05:05:58;;;;;;;38.98;21.50;;;;;;;11.87;97.58;100545.16;1739771;82;25622;-68
2022/10/26 05:08:32;;;;;;;37.55;20.17;;;;;;;11.86;97.52;100549.52;1739750;82;25584;-68
2022/10/26 05:10:56;;;;;;;47.65;21.95;;;;;;;11.85;97.62;100551.45;1738247;82;28519;-68
2022/10/26 05:13:24;;;;;;;38.53;21.00;;;;;;;11.85;97.70;100551.98;1746929;81;25543;-68
2022/10/26 05:15:54;;;;;;;39.30;21.75;;;;;;;11.84;97.75;100559.32;1741293;81;25509;-68
2022/10/26 05:18:21;;;;;;;35.33;20.85;;;;;;;11.85;97.89;100571.77;1739691;82;26233;-69
2022/10/26 05:20:53;;;;;;;41.28;21.87;;;;;;;11.86;97.88;100571.20;1748716;81;25514;-69
2022/10/26 05:23:22;;;;;;;38.75;22.87;;;;;;;11.85;97.94;100571.77;1745620;81;27168;-68
2022/10/26 05:25:50;;;;;;;42.67;21.70;;;;;;;11.86;97.89;100573.92;1742374;80;25658;-68
2022/10/26 05:28:17;;;;;;;36.98;21.48;;;;;;;11.85;97.77;100577.19;1739719;82;25460;-69
2022/10/26 05:30:46;;;;;;;41.98;22.17;;;;;;;11.84;97.71;100581.00;1739576;82;25636;-69
2022/10/26 05:33:14;;;;;;;37.10;21.55;;;;;;;11.83;97.76;100578.03;1682332;84;25383;-69
2022/10/26 05:35:43;;;;;;;49.23;22.65;;;;;;;11.83;97.83;100579.95;1688378;85;27258;-69
2022/10/26 05:38:16;;;;;;;42.50;23.52;;;;;;;11.85;97.83;100588.03;1690454;84;27223;-69
2022/10/26 05:40:49;;;;;;;39.08;21.02;;;;;;;11.84;97.95;100587.78;1690924;84;25568;-69
2022/10/26 05:43:19;;;;;;;42.35;22.27;;;;;;;11.84;97.86;100591.84;1687698;84;26240;-69
2022/10/26 05:45:47;;;;;;;;;;;;;;;11.83;97.68;100590.23;1704159;84;25393;-69
2022/10/26 05:48:14;;;;;;;37.48;22.22;;;;;;;11.82;97.69;100597.34;1682236;84;27215;-69
2022/10/26 05:50:41;;;;;;;37.88;23.20;;;;;;;11.81;97.65;100595.73;1693424;84;25477;-69
2022/10/26 05:53:09;;;;;;;47.67;22.85;;;;;;;11.80;97.73;100598.19;1693454;84;25335;-69
2022/10/26 05:55:38;;;;;;;37.75;22.30;;;;;;;11.80;97.83;100599.00;1693203;84;25609;-69
2022/10/26 05:58:12;;;;;;;39.50;23.30;;;;;;;11.81;97.80;100603.86;1682971;84;25383;-69
2022/10/26 06:00:57;;;;;;;41.65;21.65;;;;;;;11.82;97.83;100607.63;1688177;83;27197;-69
2022/10/26 06:03:42;;;;;;;39.88;22.37;;;;;;;11.81;97.71;100611.42;1646739;84;25358;-69
2022/10/26 06:06:12;;;;;;;40.95;20.88;;;;;;;11.83;97.79;100612.48;1657869;85;25651;-69
2022/10/26 06:08:41;;;;;;;42.98;22.32;;;;;;;11.83;97.62;100611.13;1672983;84;25868;-69
2022/10/26 06:11:12;;;;;;;36.80;20.05;;;;;;;11.83;97.57;100613.27;1688625;84;25632;-68
2022/10/26 06:13:41;;;;;;;38.23;21.33;;;;;;;11.80;97.24;100611.20;1657969;86;28148;-67
2022/10/26 06:16:39;;;;;;;35.28;19.85;;;;;;;11.81;97.34;100611.99;1659924;86;25329;-69
2022/10/26 06:19:55;;;;;;;33.13;19.07;;;;;;;11.82;97.50;100615.75;1659812;86;25512;-67
2022/10/26 06:22:47;;;;;;;32.98;18.60;;;;;;;11.82;97.53;100623.87;1659696;85;25665;-67
2022/10/26 06:25:35;;;;;;;31.75;19.67;;;;;;;11.85;97.65;100625.98;1659802;85;25479;-68
2022/10/26 06:28:28;;;;;;;30.45;18.73;;;;;;;11.87;97.55;100627.03;1659478;84;27239;-69
2022/10/26 06:30:57;;;;;;;36.23;18.23;;;;;;;11.87;97.16;100632.45;1661072;84;25580;-69
2022/10/26 06:33:26;;;;;;;33.15;18.45;;;;;;;11.87;97.20;100633.24;1659891;85;25311;-69
2022/10/26 06:36:22;;;;;;;30.77;19.12;;;;;;;11.88;96.86;100632.67;1659879;85;25601;-69
2022/10/26 06:39:00;;;;;;;30.82;18.10;;;;;;;11.90;97.09;100633.16;1659858;85;25327;-69
2022/10/26 06:41:33;;;;;;;34.13;17.60;;;;;;;11.93;97.07;100640.71;1658399;85;27241;-69
2022/10/26 06:44:03;;;;;;;33.88;18.60;;;;;;;11.94;96.46;100635.55;1659638;85;25410;-69
2022/10/26 06:46:52;;;;;;;32.60;18.12;;;;;;;11.95;96.53;100636.59;1658781;85;25623;-67
2022/10/26 06:49:56;;;;;;;31.80;18.48;;;;;;;11.98;96.66;100644.65;1656459;84;25595;-67
2022/10/26 06:52:35;;;;;;;32.93;18.75;;;;;;;12.02;96.55;100647.54;1659638;85;25533;-66
2022/10/26 06:55:04;;;;;;;27.42;17.15;;;;;;;12.04;96.34;100643.98;1671279;84;27290;-67
2022/10/26 06:57:37;;;;;;;30.90;17.32;;;;;;;12.07;96.13;100644.70;1686558;83;25470;-67
2022/10/26 07:00:19;;;;;;;28.83;17.62;;;;;;;12.09;96.36;100652.78;1661359;84;25392;-67
2022/10/26 07:02:48;;;;;;;29.48;15.35;;;;;;;12.13;96.25;100657.02;1668302;84;26364;-67
2022/10/26 07:05:15;;;;;;;31.42;16.67;;;;;;;12.14;95.62;100653.22;1725990;82;25345;-67
2022/10/26 07:07:47;;;;;;;26.95;15.43;;;;;;;12.17;95.59;100657.99;1725781;83;27875;-67
2022/10/26 07:10:15;;;;;;;32.40;15.50;;;;;;;12.19;95.33;100654.97;1725712;83;25330;-67
2022/10/26 07:12:43;;;;;;;26.40;14.20;;;;;;;12.21;95.23;100653.57;1726013;82;25413;-66
2022/10/26 07:15:10;;;;;;;26.60;13.48;;;;;;;12.24;95.38;100654.30;1725727;83;25695;-66
2022/10/26 07:17:47;;;;;;;88.17;81.35;;;;;;;12.27;94.67;100666.43;1725829;83;25354;-66
2022/10/26 07:20:17;;;;;;;87.50;80.40;;;;;;;12.29;94.47;100662.31;1725780;83;27239;-67
2022/10/26 07:22:46;;;;;;;89.20;82.30;;;;;;;12.33;94.59;100665.98;1712687;83;25327;-67
2022/10/26 07:25:14;;;;;;;;;;;;;;;12.39;95.16;100663.14;1727757;82;25588;-66
2022/10/26 07:27:41;;;;;;;20.82;11.83;;;;;;;12.46;94.86;100662.95;1725767;83;25675;-66
2022/10/26 07:30:10;;;;;;;21.02;12.30;;;;;;;12.52;94.57;100662.25;1726877;82;25331;-67
2022/10/26 07:32:37;;;;;;;21.95;12.18;;;;;;;12.63;95.23;100664.12;1678801;84;27302;-67
2022/10/26 07:35:06;;;;;;;25.60;13.80;;;;;;;12.89;99.82;100662.30;1725610;83;25368;-68
2022/10/26 07:37:33;;;;;;;22.77;14.03;;;;;;;13.14;97.78;100674.09;1725268;82;25620;-68
2022/10/26 07:40:01;;;;;;;24.87;13.50;;;;;;;13.26;96.59;100672.36;1724676;83;25504;-68
2022/10/26 07:42:28;;;;;;;20.43;11.75;;;;;;;13.38;95.23;100675.84;1725374;82;25644;-68
2022/10/26 07:44:55;;;;;;;21.05;11.30;;;;;;;13.49;94.53;100673.61;1712734;83;27336;-68
2022/10/26 07:47:22;;;;;;;24.67;12.63;;;;;;;13.69;94.02;100675.43;1694900;83;25611;-68
2022/10/26 07:49:49;;;;;;;20.92;11.83;;;;;;;13.78;93.43;100684.40;1725036;82;25510;-67
2022/10/26 07:52:16;;;;;;;18.85;11.45;;;;;;;13.81;91.78;100683.77;1725573;83;25629;-68
2022/10/26 07:54:43;;;;;;;19.30;12.03;;;;;;;13.82;91.08;100680.73;1727158;82;25540;-68
2022/10/26 07:57:11;;;;;;;17.82;10.70;;;;;;;13.83;90.27;100684.23;1727140;82;27270;-68
2022/10/26 07:59:38;;;;;;;19.48;11.78;;;;;;;13.86;90.00;100685.50;1725361;83;25582;-68
2022/10/26 08:02:05;;;;;;;21.77;12.35;;;;;;;13.86;89.53;100686.86;1725371;83;25365;-68
2022/10/26 08:04:32;;;;;;;20.08;10.55;;;;;;;13.87;89.61;100683.82;1725258;83;26304;-68
2022/10/26 08:06:59;;;;;;;22.90;11.60;;;;;;;13.90;89.73;100682.39;1719143;82;25326;-68
2022/10/26 08:09:26;;;;;;;21.95;11.18;;;;;;;13.96;89.96;100684.63;1725459;83;27018;-69
2022/10/26 08:11:53;;;;;;;19.30;11.10;;;;;;;14.02;89.06;100697.48;1725073;83;25633;-69
2022/10/26 08:14:20;;;;;;;21.37;11.10;;;;;;;14.02;88.73;100690.69;1726242;82;25512;-69
2022/10/26 08:16:51;;;;;;;21.40;11.53;;;;;;;14.03;88.53;100703.17;1729149;82;25967;-69
2022/10/26 08:19:17;;;;;;;22.70;10.98;;;;;;;13.99;87.83;100703.00;1725853;82;25269;-68
2022/10/26 08:21:45;;;;;;;19.02;10.40;;;;;;;13.99;87.67;100707.64;1684499;83;27246;-70
2022/10/26 08:24:12;;;;;;;19.77;11.03;;;;;;;13.98;87.24;100706.06;1697609;83;25665;-70
2022/10/26 08:26:40;;;;;;;20.82;11.40;;;;;;;13.97;87.03;100704.45;1694788;83;25635;-70
2022/10/26 08:29:07;;;;;;;18.55;10.75;;;;;;;13.96;86.90;100705.02;1700070;83;26392;-70
2022/10/26 08:31:35;;;;;;;21.57;11.25;;;;;;;13.93;86.57;100704.30;1698845;83;25341;-71
2022/10/26 08:34:03;;;;;;;23.73;12.93;;;;;;;13.94;87.50;100705.88;1695362;83;27217;-70
2022/10/26 08:36:30;;;;;;;25.20;13.22;;;;;;;13.95;86.72;100707.49;1701196;83;25603;-71
2022/10/26 08:38:57;;;;;;;27.02;13.45;;;;;;;13.93;86.49;100701.58;1693307;84;25565;-70
2022/10/26 08:41:44;;;;;;;24.55;13.68;;;;;;;13.90;86.10;100699.50;1693947;84;26396;-71
2022/10/26 08:44:37;;;;;;;24.72;13.32;;;;;;;13.96;86.35;100709.64;1681435;84;25615;-69
2022/10/26 08:47:19;;;;;;;24.30;13.22;;;;;;;13.93;85.51;100706.23;1678506;85;27204;-70
2022/10/26 08:49:54;;;;;;;31.30;13.68;;;;;;;13.92;85.88;100718.22;1673981;85;25643;-70
2022/10/26 08:52:30;;;;;;;22.37;12.43;;;;;;;13.95;85.58;100721.09;1677510;85;25680;-70
2022/10/26 08:55:00;;;;;;;24.20;12.53;;;;;;;14.06;84.89;100720.19;1678252;85;27756;-69
2022/10/26 08:57:43;;;;;;;21.55;12.30;;;;;;;14.15;85.82;100729.16;1702866;82;25493;-69
2022/10/26 09:00:25;;;;;;;21.68;12.98;;;;;;;14.23;83.68;100731.61;1736724;82;27196;-69
2022/10/26 09:02:53;;;;;;;27.37;14.43;;;;;;;14.12;83.31;100732.52;1752450;81;25640;-69
2022/10/26 09:05:32;;;;;;;25.27;15.40;;;;;;;14.07;83.52;100732.68;1739090;81;25301;-70
2022/10/26 09:08:35;;;;;;;28.45;15.38;;;;;;;14.04;83.98;100731.95;1751392;81;26263;-69
2022/10/26 09:11:26;;;;;;;27.15;14.70;;;;;;;14.05;84.01;100737.64;1697012;83;25590;-68
2022/10/26 09:14:13;;;;;;;28.27;16.12;;;;;;;13.95;83.30;100740.70;1711602;83;27960;-69
2022/10/26 09:17:12;;;;;;;24.47;13.90;;;;;;;13.87;83.69;100752.37;1663591;85;25662;-70
2022/10/26 09:20:12;;;;;;;23.42;12.88;;;;;;;13.79;83.52;100745.25;1692958;84;25484;-70
2022/10/26 09:23:03;;;;;;;24.92;13.50;;;;;;;13.67;83.52;100745.06;1692964;83;25679;-69
2022/10/26 09:25:40;;;;;;;20.92;13.40;;;;;;;13.66;84.22;100757.64;1694082;83;25313;-69
2022/10/26 09:28:12;;;;;;;19.40;12.78;;;;;;;13.63;84.10;100761.78;1692963;83;27303;-69
2022/10/26 09:30:45;;;;;;;21.82;11.57;;;;;;;13.54;83.94;100763.13;1693722;83;26615;-69
2022/10/26 09:33:23;;;;;;;20.45;12.18;;;;;;;13.45;83.74;100757.69;1693114;83;25543;-69
2022/10/26 09:36:01;;;;;;;20.62;12.75;;;;;;;13.41;84.24;100754.55;1692942;83;26161;-70
2022/10/26 09:38:50;;;;;;;25.40;13.80;;;;;;;13.33;84.21;100767.55;1676038;84;25556;-70
2022/10/26 09:41:32;;;;;;;28.60;15.73;;;;;;;13.25;84.43;100766.39;1693119;84;27388;-70
2022/10/26 09:44:26;;;;;;;30.27;14.83;;;;;;;13.18;84.26;100774.21;1693897;82;25675;-69
2022/10/26 09:47:33;;;;;;;28.80;15.98;;;;;;;13.13;84.61;100773.78;1682785;84;25594;-69
2022/10/26 09:50:08;;;;;;;30.62;15.90;;;;;;;13.09;84.88;100782.30;1678258;85;26181;-70
2022/10/26 09:52:35;;;;;;;30.25;15.50;;;;;;;13.00;85.12;100782.27;1682371;84;25443;-69
2022/10/26 09:55:04;;;;;;;26.57;14.58;;;;;;;12.98;85.68;100781.00;1678861;84;27233;-70
2022/10/26 09:57:32;;;;;;;28.43;15.97;;;;;;;12.97;85.57;100784.81;1677459;85;25381;-69
2022/10/26 09:59:59;;;;;;;30.43;15.60;;;;;;;12.94;85.85;100782.72;1695686;84;25601;-69
2022/10/26 10:02:42;;;;;;;27.73;14.50;;;;;;;12.95;86.00;100786.48;1675714;85;25666;-69
2022/10/26 10:05:35;;;;;;;22.82;14.20;;;;;;;12.93;86.05;100790.64;1668053;85;25564;-69
2022/10/26 10:08:26;;;;;;;27.22;14.73;;;;;;;12.89;86.01;100787.75;1678572;84;27282;-67
2022/10/26 10:11:01;;;;;;;23.52;13.55;;;;;;;12.88;86.17;100783.42;1696077;83;25571;-68
2022/10/26 10:13:33;;;;;;;28.38;13.90;;;;;;;12.88;86.39;100786.92;1688072;85;25351;-68
2022/10/26 10:19:00;;;;;;;23.62;13.85;;;;;;;12.97;86.54;100786.17;1497931;95;25928;-69
2022/10/26 10:21:42;;;;;;;25.00;13.78;;;;;;;12.97;86.22;100783.45;1540226;93;27241;-70
2022/10/26 10:24:31;;;;;;;22.50;13.20;;;;;;;12.97;86.06;100787.53;1507381;94;25780;-70
2022/10/26 10:27:11;;;;;;;;;;;;;;;12.98;86.53;100779.64;1510477;94;25705;-69
2022/10/26 10:29:49;;;;;;;29.90;14.05;;;;;;;13.07;86.95;100783.97;1495364;94;25658;-69
2022/10/26 10:32:22;;;;;;;25.10;13.83;;;;;;;13.14;87.78;100783.52;1503448;95;25702;-67
2022/10/26 10:34:54;;;;;;;24.82;14.35;;;;;;;13.33;88.75;100781.13;1498643;95;27324;-67
2022/10/26 10:37:33;;;;;;;32.85;13.72;;;;;;;13.43;88.51;100783.02;1486853;95;25848;-67
2022/10/26 10:40:08;;;;;;;23.03;12.87;;;;;;;13.53;88.64;100778.39;1491244;95;25643;-68
2022/10/26 10:42:40;;;;;;;22.87;13.20;;;;;;;13.62;88.06;100777.84;1495925;95;25689;-68
2022/10/26 10:45:27;;;;;;;23.85;12.65;;;;;;;13.69;87.28;100782.27;1503629;94;25629;-67
2022/10/26 10:48:17;;;;;;;20.02;12.13;;;;;;;13.74;87.22;100782.65;1487095;94;27423;-67
2022/10/26 10:51:09;;;;;;;21.87;11.80;;;;;;;13.86;88.50;100779.30;1519115;93;25839;-68
2022/10/26 10:53:52;;;;;;;21.27;12.68;;;;;;;14.32;90.69;100776.48;1472706;94;25833;-68
2022/10/26 10:56:41;;;;;;;24.72;13.15;;;;;;;14.62;88.62;100782.87;1511862;93;25749;-68
2022/10/26 10:59:52;;;;;;;19.82;11.43;;;;;;;14.89;88.51;100776.79;1507475;94;25607;-70
2022/10/26 11:03:07;;;;;;;22.75;11.33;;;;;;;14.99;86.70;100776.42;1530128;92;27315;-68
2022/10/26 11:05:49;;;;;;;22.05;11.80;;;;;;;14.98;85.23;100778.91;1577847;89;25629;-69
2022/10/26 11:08:28;;;;;;;23.52;11.70;;;;;;;15.29;85.17;100773.73;1565391;90;25490;-68
2022/10/26 11:11:19;;;;;;;16.52;10.38;;;;;;;15.31;82.82;100778.29;1563264;91;25658;-68
2022/10/26 11:14:22;;;;;;;18.80;10.38;;;;;;;15.24;83.21;100779.37;1557643;91;25266;-68
2022/10/26 11:16:58;;;;;;;21.05;10.63;;;;;;;15.30;82.91;100778.83;1557719;90;27406;-70
2022/10/26 11:19:45;;;;;;;18.27;11.05;;;;;;;15.24;81.90;100782.89;1584095;89;25986;-73
2022/10/26 11:22:18;;;;;;;23.47;10.60;;;;;;;15.22;81.58;100785.15;1584277;89;25698;-69
2022/10/26 11:25:05;;;;;;;19.65;10.65;;;;;;;15.23;81.42;100787.30;1583797;89;26152;-68
2022/10/26 11:27:46;;;;;;;22.95;11.38;;;;;;;15.24;81.26;100788.34;1583867;89;25347;-69
2022/10/26 11:30:27;;;;;;;16.40;9.88;;;;;;;15.15;80.56;100784.05;1584083;89;27402;-68
2022/10/26 11:33:12;;;;;;;23.60;11.40;;;;;;;15.09;80.85;100797.06;1583174;89;25774;-67
2022/10/26 11:36:06;;;;;;;20.70;13.05;;;;;;;15.07;82.01;100796.03;1584110;89;25870;-69
2022/10/26 11:38:51;;;;;;;19.70;12.90;;;;;;;15.15;81.86;100787.56;1546024;90;26173;-69
2022/10/26 11:41:25;;;;;;;21.60;11.43;;;;;;;15.16;81.96;100793.27;1565143;90;25607;-69
2022/10/26 11:44:07;;;;;;;24.85;13.08;;;;;;;15.12;81.67;100797.20;1588992;90;27299;-67
2022/10/26 11:46:39;;;;;;;25.75;12.00;;;;;;;15.08;81.06;100794.89;1558720;90;25673;-68